sensor_id;sensor_type;location;lat;lon;timestamp;P1;P2;P0
70249;PMS5003;57644;48.416;-123.374;2022-08-01T02:50:36;5;5;
70249;PMS5003;57644;48.416;-123.374;2022-08-01T02:53:06;10;8;
70249;PMS5003;57644;48.416;-123.374;2022-08-01T02:55:37;7;7;
70249;PMS5003;57644;48.416;-123.374;2022-08-01T02:58:08;7;6;
70249;PMS5003;57644;48.416;-123.374;2022-08-01T03:00:39;8;7;
70249;PMS5003;57644;48.416;-123.374;2022-08-01T03:03:09;7;6;
70249;PMS5003;57644;48.416;-123.374;2022-08-01T03:05:40;9;9;
70249;PMS5003;57644;48.416;-123.374;2022-08-01T03:08:10;8;8;
70249;PMS5003;57644;48.416;-123.374;2022-08-01T03:10:41;7;7;
70249;PMS5003;57644;48.416;-123.374;2022-08-01T03:13:11;7;7;
70249;PMS5003;57644;48.416;-123.374;2022-08-01T03:15:43;10;9;
70249;PMS5003;57644;48.416;-123.374;2022-08-01T03:18:12;7;7;
70249;PMS5003;57644;48.416;-123.374;2022-08-01T03:20:44;14;12;
70249;PMS5003;57644;48.416;-123.374;2022-08-01T03:23:14;12;10;
70249;PMS5003;57644;48.416;-123.374;2022-08-01T03:25:44;9;9;
70249;PMS5003;57644;48.416;-123.374;2022-08-01T03:28:15;12;10;
70249;PMS5003;57644;48.416;-123.374;2022-08-01T03:30:47;20;18;
70249;PMS5003;57644;48.416;-123.374;2022-08-01T03:33:20;18;17;
70249;PMS5003;57644;48.416;-123.374;2022-08-01T03:35:48;15;15;
70249;PMS5003;57644;48.416;-123.374;2022-08-01T03:38:17;17;17;
70249;PMS5003;57644;48.416;-123.374;2022-08-01T03:40:52;13;12;
70249;PMS5003;57644;48.416;-123.374;2022-08-01T03:43:18;10;10;
70249;PMS5003;57644;48.416;-123.374;2022-08-01T03:45:49;10;10;
70249;PMS5003;57644;48.416;-123.374;2022-08-01T03:48:18;11;11;
70249;PMS5003;57644;48.416;-123.374;2022-08-01T03:50:50;13;12;
70249;PMS5003;57644;48.416;-123.374;2022-08-01T03:53:19;11;11;
70249;PMS5003;57644;48.416;-123.374;2022-08-01T03:55:50;14;13;
70249;PMS5003;57644;48.416;-123.374;2022-08-01T03:58:19;11;10;
70249;PMS5003;57644;48.416;-123.374;2022-08-01T04:00:49;9;9;
70249;PMS5003;57644;48.416;-123.374;2022-08-01T04:03:21;8;8;
70249;PMS5003;57644;48.416;-123.374;2022-08-01T04:05:50;10;8;
70249;PMS5003;57644;48.416;-123.374;2022-08-01T04:08:21;9;9;
70249;PMS5003;57644;48.416;-123.374;2022-08-01T04:10:51;10;10;
70249;PMS5003;57644;48.416;-123.374;2022-08-01T04:13:22;12;10;
70249;PMS5003;57644;48.416;-123.374;2022-08-01T04:15:52;12;10;
70249;PMS5003;57644;48.416;-123.374;2022-08-01T04:18:22;19;18;
70249;PMS5003;57644;48.416;-123.374;2022-08-01T04:20:53;9;9;
70249;PMS5003;57644;48.416;-123.374;2022-08-01T04:23:24;10;9;
70249;PMS5003;57644;48.416;-123.374;2022-08-01T04:25:54;6;6;
70249;PMS5003;57644;48.416;-123.374;2022-08-01T04:28:24;13;10;
70249;PMS5003;57644;48.416;-123.374;2022-08-01T04:30:54;11;10;
70249;PMS5003;57644;48.416;-123.374;2022-08-01T04:33:24;10;10;
70249;PMS5003;57644;48.416;-123.374;2022-08-01T04:35:55;14;14;
70249;PMS5003;57644;48.416;-123.374;2022-08-01T04:38:26;11;11;
70249;PMS5003;57644;48.416;-123.374;2022-08-01T04:40:57;12;11;
70249;PMS5003;57644;48.416;-123.374;2022-08-01T04:43:29;11;10;
70249;PMS5003;57644;48.416;-123.374;2022-08-01T04:45:57;10;10;
70249;PMS5003;57644;48.416;-123.374;2022-08-01T04:48:27;11;10;
70249;PMS5003;57644;48.416;-123.374;2022-08-01T04:50:57;11;11;
70249;PMS5003;57644;48.416;-123.374;2022-08-01T04:53:29;28;27;
70249;PMS5003;57644;48.416;-123.374;2022-08-01T04:55:59;26;26;
70249;PMS5003;57644;48.416;-123.374;2022-08-01T04:58:28;27;27;
70249;PMS5003;57644;48.416;-123.374;2022-08-01T05:00:58;11;10;
70249;PMS5003;57644;48.416;-123.374;2022-08-01T05:03:29;8;8;
70249;PMS5003;57644;48.416;-123.374;2022-08-01T05:05:59;7;7;
70249;PMS5003;57644;48.416;-123.374;2022-08-01T05:08:30;7;7;
70249;PMS5003;57644;48.416;-123.374;2022-08-01T05:11:07;10;9;
70249;PMS5003;57644;48.416;-123.374;2022-08-01T05:13:32;13;13;
70249;PMS5003;57644;48.416;-123.374;2022-08-01T05:16:01;7;7;
70249;PMS5003;57644;48.416;-123.374;2022-08-01T05:18:32;10;9;
70249;PMS5003;57644;48.416;-123.374;2022-08-01T05:21:02;10;10;
70249;PMS5003;57644;48.416;-123.374;2022-08-01T05:23:32;9;8;
70249;PMS5003;57644;48.416;-123.374;2022-08-01T05:26:03;8;8;
70249;PMS5003;57644;48.416;-123.374;2022-08-01T05:28:33;10;9;
70249;PMS5003;57644;48.416;-123.374;2022-08-01T05:31:03;10;9;
70249;PMS5003;57644;48.416;-123.374;2022-08-01T05:33:34;7;7;
70249;PMS5003;57644;48.416;-123.374;2022-08-01T05:36:07;7;7;
70249;PMS5003;57644;48.416;-123.374;2022-08-01T05:38:34;10;10;
70249;PMS5003;57644;48.416;-123.374;2022-08-01T05:41:06;8;7;
70249;PMS5003;57644;48.416;-123.374;2022-08-01T05:43:37;9;8;
70249;PMS5003;57644;48.416;-123.374;2022-08-01T05:46:06;6;6;
70249;PMS5003;57644;48.416;-123.374;2022-08-01T05:48:36;5;5;
70249;PMS5003;57644;48.416;-123.374;2022-08-01T05:51:06;5;4;
70249;PMS5003;57644;48.416;-123.374;2022-08-01T05:53:36;2;2;
70249;PMS5003;57644;48.416;-123.374;2022-08-01T05:56:07;5;5;
70249;PMS5003;57644;48.416;-123.374;2022-08-01T05:58:39;9;9;
70249;PMS5003;57644;48.416;-123.374;2022-08-01T06:01:09;5;5;
70249;PMS5003;57644;48.416;-123.374;2022-08-01T06:03:38;8;7;
70249;PMS5003;57644;48.416;-123.374;2022-08-01T06:06:08;4;4;
70249;PMS5003;57644;48.416;-123.374;2022-08-01T06:08:38;4;4;
70249;PMS5003;57644;48.416;-123.374;2022-08-01T15:22:39;1;1;
70249;PMS5003;57644;48.416;-123.374;2022-08-01T23:03:21;3;3;
70249;PMS5003;57644;48.416;-123.374;2022-08-01T23:05:54;7;5;
70249;PMS5003;57644;48.416;-123.374;2022-08-01T23:08:19;8;7;
70249;PMS5003;57644;48.416;-123.374;2022-08-01T23:10:50;3;3;
70249;PMS5003;57644;48.416;-123.374;2022-08-01T23:13:20;5;5;
70249;PMS5003;57644;48.416;-123.374;2022-08-01T23:15:50;4;3;
70249;PMS5003;57644;48.416;-123.374;2022-08-01T23:18:21;3;3;
70249;PMS5003;57644;48.416;-123.374;2022-08-01T23:20:51;6;4;
70249;PMS5003;57644;48.416;-123.374;2022-08-01T23:23:21;4;4;
70249;PMS5003;57644;48.416;-123.374;2022-08-01T23:25:51;4;4;
70249;PMS5003;57644;48.416;-123.374;2022-08-01T23:28:23;3;3;
70249;PMS5003;57644;48.416;-123.374;2022-08-01T23:30:52;4;4;
70249;PMS5003;57644;48.416;-123.374;2022-08-01T23:33:23;3;3;
70249;PMS5003;57644;48.416;-123.374;2022-08-01T23:35:53;6;5;
70249;PMS5003;57644;48.416;-123.374;2022-08-01T23:38:24;6;4;
70249;PMS5003;57644;48.416;-123.374;2022-08-01T23:40:54;7;6;
70249;PMS5003;57644;48.416;-123.374;2022-08-01T23:43:25;6;4;
70249;PMS5003;57644;48.416;-123.374;2022-08-01T23:45:55;6;5;
70249;PMS5003;57644;48.416;-123.374;2022-08-01T23:48:26;4;3;
70249;PMS5003;57644;48.416;-123.374;2022-08-01T23:50:56;6;6;
70249;PMS5003;57644;48.416;-123.374;2022-08-01T23:53:26;5;4;
70249;PMS5003;57644;48.416;-123.374;2022-08-01T23:55:57;4;2;
70249;PMS5003;57644;48.416;-123.374;2022-08-01T23:58:27;4;3;
